Schrunz, Liechtenstein
Current Conditions -  °F | °C
As of 10:20 PM on Thursday 29 Jan 2015 (Local Time) from LSZR Reporting Station
Broken Clouds Broken Clouds  
Wind Chill: 37°   Ceiling: 5000
Heat Index: 41°   Visibility: 6mi
Dew Point: 30°   Wind: 6mph
Humidity: 65%   Direction: NA
Pressure: 28.97"   Gusts: NA
Location:  47.08°N, 9.93°E
Report Text: LSZR 292020Z AUTO VRB05KT 9999 BKN050 SCT070 05/M01 Q0981
Loading
Personal Weather Stations






























Interactive Weather Map New forecast layout! Learn more

10-Day Weather Forecast

Advertisements
Track Severe Weather on mobile